This is the latest recevied weather packets stored in our database for station/object N5KR. If no packets are shown the sender has not sent any weather packets the latest 10 day(s).
| Time | Temp. | Humidity | Pressure | Rain* | Wind** | Luminosity | Snow |
|---|---|---|---|---|---|---|---|
| 1778086805 | 12.22° C | 88% | 1014.7 hPa | 0 mm | - | 92 W/m² | - |
| 1778086505 | 12.22° C | 88% | 1014.8 hPa | 0 mm | - | 75 W/m² | - |
| 1778085305 | 12.22° C | 87% | 1015.8 hPa | 1.27 mm | - | 86 W/m² | - |
| 1778085004 | 12.22° C | 87% | 1016 hPa | 3.3 mm | - | 94 W/m² | - |
| 1778084404 | 12.22° C | 87% | 1015.4 hPa | 3.3 mm | - | 100 W/m² | - |
| 1778082904 | 12.22° C | 89% | 1014.2 hPa | 3.3 mm | - | 207 W/m² | - |
| 1778081105 | 12.22° C | 82% | 1016.6 hPa | 0 mm | - | 0 W/m² | - |
| 1778079605 | 12.22° C | 81% | 1015.2 hPa | 0 mm | - | 65 W/m² | - |
| 1778073604 | 11.67° C | 81% | 1013.7 hPa | 0 mm | - | 27 W/m² | - |
| 1778071205 | 12.22° C | 79% | 1013.5 hPa | 0 mm | - | 11 W/m² | - |
| 1778069404 | 12.22° C | 79% | 1013.4 hPa | 0 mm | - | 6 W/m² | - |
| 1778068805 | 12.22° C | 79% | 1013.4 hPa | 0 mm | - | 5 W/m² | - |
| 1778068504 | 12.22° C | 79% | 1012.9 hPa | 0 mm | - | 0 W/m² | - |
| 1778066404 | 12.78° C | 76% | 1012.4 hPa | 0 mm | - | 0 W/m² | - |
| 1778064904 | 12.78° C | 74% | 1012 hPa | 0 mm | - | 0 W/m² | - |
| 1778064604 | 12.78° C | 74% | 1011.8 hPa | 0 mm | - | 0 W/m² | - |
| 1778063404 | 13.33° C | 74% | 1011.4 hPa | 0 mm | - | 0 W/m² | - |
| 1778061904 | 13.33° C | 73% | 1011.2 hPa | 0 mm | - | 0 W/m² | - |
| 1778059204 | 13.89° C | 73% | 1010.9 hPa | 0 mm | - | 0 W/m² | - |
| 1778054404 | 14.44° C | 74% | 1010 hPa | 0 mm | - | 0 W/m² | - |
| 1778050507 | 14.44° C | 75% | 1010.4 hPa | 0 mm | - | 0 W/m² | - |
| 1778049606 | 15° C | 74% | 1010.4 hPa | 0 mm | - | 0 W/m² | - |
| 1778047807 | 15.56° C | 75% | 1010.2 hPa | 0 mm | - | 0 W/m² | - |
| 1778044807 | 16.11° C | 76% | 1010.3 hPa | 0 mm | - | 0 W/m² | - |
| 1778043907 | 16.11° C | 76% | 1010 hPa | 0 mm | - | 0 W/m² | - |
* Rain latest hour (hover to see other rain measurements)
** Current wind speed in m/s (hover to see current wind gust speed)